sensor_id;sensor_type;location;lat;lon;timestamp;pressure;altitude;pressure_sealevel;temperature;humidity
14273;BME280;7220;49.450;11.052;2022-11-15T00:03:29;98085.06;;;8.05;100.00
14273;BME280;7220;49.450;11.052;2022-11-15T00:07:29;98064.03;;;8.02;100.00
14273;BME280;7220;49.450;11.052;2022-11-15T00:11:30;98075.50;;;8.03;100.00
14273;BME280;7220;49.450;11.052;2022-11-15T00:15:30;98059.03;;;7.96;100.00
14273;BME280;7220;49.450;11.052;2022-11-15T00:19:30;98065.91;;;8.00;100.00
14273;BME280;7220;49.450;11.052;2022-11-15T00:23:30;98075.06;;;7.93;100.00
14273;BME280;7220;49.450;11.052;2022-11-15T00:27:31;98064.31;;;7.96;100.00
14273;BME280;7220;49.450;11.052;2022-11-15T00:31:31;98072.25;;;7.96;100.00
14273;BME280;7220;49.450;11.052;2022-11-15T00:35:32;98068.81;;;7.94;100.00
14273;BME280;7220;49.450;11.052;2022-11-15T00:39:36;98078.88;;;7.86;100.00
14273;BME280;7220;49.450;11.052;2022-11-15T00:43:36;98070.19;;;7.84;100.00
14273;BME280;7220;49.450;11.052;2022-11-15T00:47:36;98060.56;;;7.81;100.00
14273;BME280;7220;49.450;11.052;2022-11-15T00:51:37;98065.72;;;7.84;100.00
14273;BME280;7220;49.450;11.052;2022-11-15T00:55:37;98060.00;;;7.74;100.00
14273;BME280;7220;49.450;11.052;2022-11-15T00:59:37;98075.72;;;7.78;100.00
14273;BME280;7220;49.450;11.052;2022-11-15T01:03:39;98061.03;;;7.70;100.00
14273;BME280;7220;49.450;11.052;2022-11-15T01:07:40;98056.75;;;7.68;100.00
14273;BME280;7220;49.450;11.052;2022-11-15T01:11:40;98054.19;;;7.66;100.00
14273;BME280;7220;49.450;11.052;2022-11-15T01:15:41;98063.97;;;7.64;100.00
14273;BME280;7220;49.450;11.052;2022-11-15T01:19:41;98023.44;;;7.43;100.00
14273;BME280;7220;49.450;11.052;2022-11-15T01:23:42;98047.66;;;7.54;100.00
14273;BME280;7220;49.450;11.052;2022-11-15T01:27:42;98054.72;;;7.54;100.00
14273;BME280;7220;49.450;11.052;2022-11-15T01:31:42;98047.06;;;7.48;100.00
14273;BME280;7220;49.450;11.052;2022-11-15T01:35:43;98040.19;;;7.44;100.00
14273;BME280;7220;49.450;11.052;2022-11-15T01:39:43;98037.56;;;7.44;100.00
14273;BME280;7220;49.450;11.052;2022-11-15T01:43:43;97995.53;;;7.17;100.00
14273;BME280;7220;49.450;11.052;2022-11-15T01:47:53;98023.94;;;7.32;100.00
14273;BME280;7220;49.450;11.052;2022-11-15T01:51:54;98037.75;;;7.39;100.00
14273;BME280;7220;49.450;11.052;2022-11-15T01:55:55;98014.34;;;7.30;100.00
14273;BME280;7220;49.450;11.052;2022-11-15T01:59:57;98017.72;;;7.33;100.00
14273;BME280;7220;49.450;11.052;2022-11-15T02:04:04;98009.72;;;7.35;100.00
14273;BME280;7220;49.450;11.052;2022-11-15T02:08:08;97996.84;;;7.27;100.00
14273;BME280;7220;49.450;11.052;2022-11-15T02:12:09;97990.03;;;7.21;100.00
14273;BME280;7220;49.450;11.052;2022-11-15T02:38:31;97970.69;;;7.21;100.00
14273;BME280;7220;49.450;11.052;2022-11-15T02:42:36;97950.47;;;7.20;100.00
14273;BME280;7220;49.450;11.052;2022-11-15T02:47:01;97981.09;;;7.24;100.00
14273;BME280;7220;49.450;11.052;2022-11-15T02:51:15;97955.06;;;7.15;100.00
14273;BME280;7220;49.450;11.052;2022-11-15T02:55:39;97968.88;;;7.21;100.00
14273;BME280;7220;49.450;11.052;2022-11-15T03:00:00;97950.50;;;7.18;100.00
14273;BME280;7220;49.450;11.052;2022-11-15T03:04:23;97938.66;;;7.08;100.00
14273;BME280;7220;49.450;11.052;2022-11-15T03:08:58;97923.75;;;7.05;100.00
14273;BME280;7220;49.450;11.052;2022-11-15T03:13:26;97935.94;;;7.09;100.00
14273;BME280;7220;49.450;11.052;2022-11-15T03:17:34;97917.75;;;7.02;100.00
14273;BME280;7220;49.450;11.052;2022-11-15T03:21:37;97932.66;;;7.04;100.00
14273;BME280;7220;49.450;11.052;2022-11-15T03:25:45;97925.03;;;6.97;100.00
14273;BME280;7220;49.450;11.052;2022-11-15T03:29:51;97924.44;;;6.90;100.00
14273;BME280;7220;49.450;11.052;2022-11-15T03:33:55;97912.38;;;6.84;100.00
14273;BME280;7220;49.450;11.052;2022-11-15T03:38:04;97913.75;;;6.93;100.00
14273;BME280;7220;49.450;11.052;2022-11-15T03:46:32;97921.25;;;6.82;100.00
14273;BME280;7220;49.450;11.052;2022-11-15T03:50:33;97909.00;;;6.81;100.00
14273;BME280;7220;49.450;11.052;2022-11-15T03:54:34;97904.44;;;6.84;100.00
14273;BME280;7220;49.450;11.052;2022-11-15T03:58:34;97905.56;;;6.78;100.00
14273;BME280;7220;49.450;11.052;2022-11-15T04:02:34;97912.63;;;6.78;100.00
14273;BME280;7220;49.450;11.052;2022-11-15T04:06:35;97904.84;;;6.75;100.00
14273;BME280;7220;49.450;11.052;2022-11-15T04:10:35;97901.47;;;6.71;100.00
14273;BME280;7220;49.450;11.052;2022-11-15T04:14:35;97913.75;;;6.72;100.00
14273;BME280;7220;49.450;11.052;2022-11-15T04:18:35;97910.31;;;6.70;100.00
14273;BME280;7220;49.450;11.052;2022-11-15T04:22:36;97904.34;;;6.65;100.00
14273;BME280;7220;49.450;11.052;2022-11-15T04:26:55;97902.66;;;6.64;100.00
14273;BME280;7220;49.450;11.052;2022-11-15T04:30:55;97908.06;;;6.61;100.00
14273;BME280;7220;49.450;11.052;2022-11-15T04:34:55;97918.75;;;6.58;100.00
14273;BME280;7220;49.450;11.052;2022-11-15T04:38:56;97913.63;;;6.55;100.00
14273;BME280;7220;49.450;11.052;2022-11-15T04:42:56;97884.88;;;6.47;100.00
14273;BME280;7220;49.450;11.052;2022-11-15T04:46:57;97907.59;;;6.51;100.00
14273;BME280;7220;49.450;11.052;2022-11-15T04:50:58;97890.31;;;6.44;100.00
14273;BME280;7220;49.450;11.052;2022-11-15T04:54:58;97883.63;;;6.35;100.00
14273;BME280;7220;49.450;11.052;2022-11-15T04:58:58;97870.69;;;6.29;100.00
14273;BME280;7220;49.450;11.052;2022-11-15T05:02:59;97865.28;;;6.32;100.00
14273;BME280;7220;49.450;11.052;2022-11-15T05:07:17;97859.22;;;6.30;100.00
14273;BME280;7220;49.450;11.052;2022-11-15T05:11:18;97832.41;;;6.19;100.00
14273;BME280;7220;49.450;11.052;2022-11-15T05:15:18;97837.44;;;6.25;100.00
14273;BME280;7220;49.450;11.052;2022-11-15T05:19:18;97853.28;;;6.25;100.00
14273;BME280;7220;49.450;11.052;2022-11-15T05:23:19;97846.19;;;6.25;100.00
14273;BME280;7220;49.450;11.052;2022-11-15T05:27:19;97849.50;;;6.30;100.00
14273;BME280;7220;49.450;11.052;2022-11-15T05:31:19;97856.69;;;6.27;100.00
14273;BME280;7220;49.450;11.052;2022-11-15T05:35:45;97844.16;;;6.32;100.00
14273;BME280;7220;49.450;11.052;2022-11-15T05:39:46;97846.75;;;6.34;100.00
14273;BME280;7220;49.450;11.052;2022-11-15T05:43:48;97853.72;;;6.35;100.00
14273;BME280;7220;49.450;11.052;2022-11-15T05:47:50;97848.72;;;6.28;100.00
14273;BME280;7220;49.450;11.052;2022-11-15T05:51:52;97853.72;;;6.35;100.00
14273;BME280;7220;49.450;11.052;2022-11-15T05:55:53;97848.00;;;6.25;100.00
14273;BME280;7220;49.450;11.052;2022-11-15T05:59:54;97858.94;;;6.36;100.00
14273;BME280;7220;49.450;11.052;2022-11-15T06:03:55;97828.56;;;6.26;100.00
14273;BME280;7220;49.450;11.052;2022-11-15T06:07:58;97837.28;;;6.28;100.00
14273;BME280;7220;49.450;11.052;2022-11-15T06:11:59;97834.91;;;6.22;100.00
14273;BME280;7220;49.450;11.052;2022-11-15T06:15:59;97852.22;;;6.29;100.00
14273;BME280;7220;49.450;11.052;2022-11-15T06:19:59;97847.22;;;6.21;100.00
14273;BME280;7220;49.450;11.052;2022-11-15T06:24:00;97862.09;;;6.24;100.00
14273;BME280;7220;49.450;11.052;2022-11-15T06:28:00;97851.66;;;6.21;100.00
14273;BME280;7220;49.450;11.052;2022-11-15T06:32:00;97848.41;;;6.14;100.00
14273;BME280;7220;49.450;11.052;2022-11-15T06:36:06;97864.88;;;6.21;100.00
14273;BME280;7220;49.450;11.052;2022-11-15T06:40:08;97851.84;;;6.16;100.00
14273;BME280;7220;49.450;11.052;2022-11-15T06:44:09;97859.69;;;6.18;100.00
14273;BME280;7220;49.450;11.052;2022-11-15T06:48:09;97870.13;;;6.21;100.00
14273;BME280;7220;49.450;11.052;2022-11-15T06:52:09;97870.97;;;6.21;100.00
14273;BME280;7220;49.450;11.052;2022-11-15T06:56:10;97869.94;;;6.25;100.00
14273;BME280;7220;49.450;11.052;2022-11-15T07:00:10;97867.50;;;6.21;100.00
14273;BME280;7220;49.450;11.052;2022-11-15T07:04:11;97834.63;;;6.07;100.00
14273;BME280;7220;49.450;11.052;2022-11-15T07:08:11;97854.22;;;6.22;100.00
14273;BME280;7220;49.450;11.052;2022-11-15T07:12:11;97854.22;;;6.22;100.00
14273;BME280;7220;49.450;11.052;2022-11-15T07:16:11;97836.69;;;6.21;100.00
14273;BME280;7220;49.450;11.052;2022-11-15T07:20:13;97850.28;;;6.32;100.00
14273;BME280;7220;49.450;11.052;2022-11-15T07:24:13;97823.91;;;6.32;100.00
14273;BME280;7220;49.450;11.052;2022-11-15T07:28:13;97820.94;;;6.40;100.00
14273;BME280;7220;49.450;11.052;2022-11-15T07:32:14;97845.16;;;6.50;100.00
14273;BME280;7220;49.450;11.052;2022-11-15T07:36:14;97839.81;;;6.52;100.00
14273;BME280;7220;49.450;11.052;2022-11-15T07:40:14;97841.13;;;6.62;100.00
14273;BME280;7220;49.450;11.052;2022-11-15T07:44:15;97836.47;;;6.69;100.00
14273;BME280;7220;49.450;11.052;2022-11-15T07:48:15;97825.66;;;6.73;100.00
14273;BME280;7220;49.450;11.052;2022-11-15T07:52:15;97824.63;;;6.77;100.00
14273;BME280;7220;49.450;11.052;2022-11-15T07:56:16;97831.84;;;6.93;100.00
14273;BME280;7220;49.450;11.052;2022-11-15T08:00:16;97827.22;;;6.98;100.00
14273;BME280;7220;49.450;11.052;2022-11-15T08:04:17;97818.81;;;7.09;100.00
14273;BME280;7220;49.450;11.052;2022-11-15T08:08:17;97819.16;;;7.20;100.00
14273;BME280;7220;49.450;11.052;2022-11-15T08:12:17;97811.81;;;7.27;100.00
14273;BME280;7220;49.450;11.052;2022-11-15T08:16:18;97812.13;;;7.40;100.00
14273;BME280;7220;49.450;11.052;2022-11-15T08:20:18;97818.59;;;7.52;99.18
14273;BME280;7220;49.450;11.052;2022-11-15T08:24:19;97822.22;;;7.68;98.50
14273;BME280;7220;49.450;11.052;2022-11-15T08:28:20;97813.06;;;7.76;96.23
14273;BME280;7220;49.450;11.052;2022-11-15T08:32:21;97813.16;;;7.92;94.88
14273;BME280;7220;49.450;11.052;2022-11-15T08:36:21;97803.94;;;8.00;93.93
14273;BME280;7220;49.450;11.052;2022-11-15T08:40:21;97796.69;;;8.21;92.78
14273;BME280;7220;49.450;11.052;2022-11-15T08:44:22;97789.75;;;8.36;91.57
14273;BME280;7220;49.450;11.052;2022-11-15T08:48:24;97789.94;;;8.51;90.53
14273;BME280;7220;49.450;11.052;2022-11-15T08:52:24;97796.47;;;8.61;89.23
14273;BME280;7220;49.450;11.052;2022-11-15T08:56:25;97789.66;;;8.73;88.32
14273;BME280;7220;49.450;11.052;2022-11-15T09:00:25;97780.13;;;8.87;87.72
14273;BME280;7220;49.450;11.052;2022-11-15T09:04:25;97792.78;;;8.97;86.28
14273;BME280;7220;49.450;11.052;2022-11-15T09:08:31;97798.81;;;9.17;86.02
14273;BME280;7220;49.450;11.052;2022-11-15T09:12:31;97774.38;;;9.12;85.74
14273;BME280;7220;49.450;11.052;2022-11-15T09:16:32;97773.44;;;9.29;85.99
14273;BME280;7220;49.450;11.052;2022-11-15T09:20:32;97774.53;;;9.41;85.87
14273;BME280;7220;49.450;11.052;2022-11-15T09:24:34;97774.56;;;9.57;85.08
14273;BME280;7220;49.450;11.052;2022-11-15T09:28:35;97764.38;;;9.65;84.98
14273;BME280;7220;49.450;11.052;2022-11-15T09:32:36;97770.09;;;9.73;84.37
14273;BME280;7220;49.450;11.052;2022-11-15T09:36:37;97760.91;;;9.79;84.24
14273;BME280;7220;49.450;11.052;2022-11-15T09:40:37;97761.97;;;9.91;83.38
14273;BME280;7220;49.450;11.052;2022-11-15T09:49:08;97739.69;;;10.09;82.11
14273;BME280;7220;49.450;11.052;2022-11-15T09:53:14;97728.69;;;10.16;82.12
14273;BME280;7220;49.450;11.052;2022-11-15T09:57:50;97736.50;;;10.33;81.34
14273;BME280;7220;49.450;11.052;2022-11-15T10:06:01;97732.28;;;10.60;79.76
14273;BME280;7220;49.450;11.052;2022-11-15T10:10:23;97718.81;;;10.63;78.45
14273;BME280;7220;49.450;11.052;2022-11-15T10:14:28;97727.00;;;10.88;78.26
14273;BME280;7220;49.450;11.052;2022-11-15T10:18:35;97715.09;;;10.94;77.68
14273;BME280;7220;49.450;11.052;2022-11-15T10:22:55;97704.16;;;11.13;77.11
14273;BME280;7220;49.450;11.052;2022-11-15T10:26:56;97687.59;;;11.23;77.05
14273;BME280;7220;49.450;11.052;2022-11-15T10:30:59;97682.34;;;11.35;75.67
14273;BME280;7220;49.450;11.052;2022-11-15T10:35:16;97679.44;;;11.53;76.03
14273;BME280;7220;49.450;11.052;2022-11-15T10:39:17;97665.81;;;11.58;74.82
14273;BME280;7220;49.450;11.052;2022-11-15T10:43:18;97666.31;;;11.77;75.55
14273;BME280;7220;49.450;11.052;2022-11-15T10:47:28;97653.97;;;11.89;75.26
14273;BME280;7220;49.450;11.052;2022-11-15T10:51:29;97645.06;;;12.03;74.46
14273;BME280;7220;49.450;11.052;2022-11-15T10:55:31;97647.22;;;12.24;73.26
14273;BME280;7220;49.450;11.052;2022-11-15T10:59:35;97637.41;;;12.37;72.47
14273;BME280;7220;49.450;11.052;2022-11-15T11:03:41;97631.28;;;12.61;71.70
14273;BME280;7220;49.450;11.052;2022-11-15T11:07:58;97624.97;;;12.75;71.00
14273;BME280;7220;49.450;11.052;2022-11-15T11:12:00;97622.59;;;12.96;70.98
14273;BME280;7220;49.450;11.052;2022-11-15T11:20:33;97622.31;;;13.36;69.31
14273;BME280;7220;49.450;11.052;2022-11-15T11:41:57;97578.25;;;16.21;60.01
14273;BME280;7220;49.450;11.052;2022-11-15T11:50:25;97556.88;;;18.57;49.24
14273;BME280;7220;49.450;11.052;2022-11-15T11:54:50;97554.47;;;19.10;46.24
14273;BME280;7220;49.450;11.052;2022-11-15T11:58:55;97552.81;;;19.27;45.85
14273;BME280;7220;49.450;11.052;2022-11-15T12:11:20;97546.00;;;19.77;44.09
14273;BME280;7220;49.450;11.052;2022-11-15T12:15:30;97524.09;;;19.80;42.76
14273;BME280;7220;49.450;11.052;2022-11-15T12:19:32;97535.59;;;20.35;41.80
14273;BME280;7220;49.450;11.052;2022-11-15T12:23:38;97534.69;;;20.26;42.48
14273;BME280;7220;49.450;11.052;2022-11-15T12:27:48;97534.16;;;19.69;42.61
14273;BME280;7220;49.450;11.052;2022-11-15T12:31:53;97519.53;;;19.18;43.87
14273;BME280;7220;49.450;11.052;2022-11-15T12:36:03;97526.91;;;19.16;44.17
14273;BME280;7220;49.450;11.052;2022-11-15T12:52:36;97520.81;;;18.50;45.34
14273;BME280;7220;49.450;11.052;2022-11-15T12:56:36;97512.03;;;18.10;46.23
14273;BME280;7220;49.450;11.052;2022-11-15T13:00:37;97517.22;;;17.64;46.63
14273;BME280;7220;49.450;11.052;2022-11-15T13:04:38;97504.41;;;17.38;47.20
14273;BME280;7220;49.450;11.052;2022-11-15T13:08:44;97523.59;;;17.24;48.10
14273;BME280;7220;49.450;11.052;2022-11-15T13:12:49;97515.41;;;16.96;49.64
14273;BME280;7220;49.450;11.052;2022-11-15T13:16:58;97520.78;;;16.55;49.92
14273;BME280;7220;49.450;11.052;2022-11-15T13:20:59;97519.06;;;16.44;50.23
14273;BME280;7220;49.450;11.052;2022-11-15T13:25:01;97502.63;;;16.28;50.69
14273;BME280;7220;49.450;11.052;2022-11-15T13:29:01;97490.00;;;16.08;51.68
14273;BME280;7220;49.450;11.052;2022-11-15T13:33:13;97491.09;;;15.96;52.24
14273;BME280;7220;49.450;11.052;2022-11-15T13:41:23;97472.09;;;15.78;52.22
14273;BME280;7220;49.450;11.052;2022-11-15T13:45:25;97479.47;;;15.86;53.01
14273;BME280;7220;49.450;11.052;2022-11-15T13:49:31;97460.72;;;15.65;54.37
14273;BME280;7220;49.450;11.052;2022-11-15T13:53:33;97467.78;;;15.66;53.97
14273;BME280;7220;49.450;11.052;2022-11-15T13:57:42;97454.63;;;15.62;55.20
14273;BME280;7220;49.450;11.052;2022-11-15T14:01:44;97449.81;;;15.56;54.47
14273;BME280;7220;49.450;11.052;2022-11-15T14:06:08;97458.44;;;15.60;55.23
14273;BME280;7220;49.450;11.052;2022-11-15T14:10:35;97455.56;;;15.52;54.84
14273;BME280;7220;49.450;11.052;2022-11-15T14:14:44;97453.56;;;15.23;56.14
14273;BME280;7220;49.450;11.052;2022-11-15T14:18:50;97447.41;;;15.11;56.40
14273;BME280;7220;49.450;11.052;2022-11-15T14:22:56;97462.59;;;15.10;55.99
14273;BME280;7220;49.450;11.052;2022-11-15T14:26:56;97439.03;;;14.83;56.97
14273;BME280;7220;49.450;11.052;2022-11-15T14:30:59;97448.06;;;14.82;57.42
14273;BME280;7220;49.450;11.052;2022-11-15T14:35:02;97448.22;;;14.69;58.25
14273;BME280;7220;49.450;11.052;2022-11-15T14:39:02;97443.84;;;14.68;58.60
14273;BME280;7220;49.450;11.052;2022-11-15T14:43:08;97434.00;;;14.57;59.05
14273;BME280;7220;49.450;11.052;2022-11-15T14:47:09;97439.38;;;14.46;59.81
14273;BME280;7220;49.450;11.052;2022-11-15T14:51:13;97432.81;;;14.39;60.08
14273;BME280;7220;49.450;11.052;2022-11-15T14:59:20;97420.34;;;14.16;61.30
14273;BME280;7220;49.450;11.052;2022-11-15T15:03:23;97418.56;;;14.06;62.04
14273;BME280;7220;49.450;11.052;2022-11-15T15:07:23;97408.38;;;13.88;62.73
14273;BME280;7220;49.450;11.052;2022-11-15T15:11:25;97409.00;;;13.80;62.80
14273;BME280;7220;49.450;11.052;2022-11-15T15:15:34;97395.91;;;13.66;63.32
14273;BME280;7220;49.450;11.052;2022-11-15T15:19:34;97387.28;;;13.51;64.81
14273;BME280;7220;49.450;11.052;2022-11-15T15:23:35;97378.59;;;13.36;66.26
14273;BME280;7220;49.450;11.052;2022-11-15T15:27:35;97373.50;;;13.21;67.67
14273;BME280;7220;49.450;11.052;2022-11-15T15:31:35;97372.84;;;13.06;68.80
14273;BME280;7220;49.450;11.052;2022-11-15T15:35:36;97386.41;;;12.92;68.92
14273;BME280;7220;49.450;11.052;2022-11-15T15:39:36;97381.16;;;12.79;69.40
14273;BME280;7220;49.450;11.052;2022-11-15T15:43:37;97391.06;;;12.66;71.84
14273;BME280;7220;49.450;11.052;2022-11-15T15:47:37;97376.00;;;12.53;72.75
14273;BME280;7220;49.450;11.052;2022-11-15T15:51:38;97380.94;;;12.46;73.45
14273;BME280;7220;49.450;11.052;2022-11-15T15:55:39;97385.75;;;12.41;73.96
14273;BME280;7220;49.450;11.052;2022-11-15T15:59:40;97376.97;;;12.28;74.27
14273;BME280;7220;49.450;11.052;2022-11-15T16:03:40;97390.41;;;12.26;74.56
14273;BME280;7220;49.450;11.052;2022-11-15T16:07:41;97396.06;;;12.22;75.47
14273;BME280;7220;49.450;11.052;2022-11-15T16:11:46;97376.78;;;12.18;75.23
14273;BME280;7220;49.450;11.052;2022-11-15T16:15:50;97381.16;;;12.19;76.15
14273;BME280;7220;49.450;11.052;2022-11-15T16:19:52;97374.47;;;12.13;76.43
14273;BME280;7220;49.450;11.052;2022-11-15T16:23:52;97370.97;;;12.13;76.78
14273;BME280;7220;49.450;11.052;2022-11-15T16:27:53;97367.88;;;12.06;77.06
14273;BME280;7220;49.450;11.052;2022-11-15T16:31:53;97367.88;;;12.06;77.46
14273;BME280;7220;49.450;11.052;2022-11-15T16:35:54;97368.84;;;12.05;77.60
14273;BME280;7220;49.450;11.052;2022-11-15T16:39:54;97332.16;;;11.84;77.32
14273;BME280;7220;49.450;11.052;2022-11-15T16:43:55;97359.63;;;11.98;78.13
14273;BME280;7220;49.450;11.052;2022-11-15T16:47:55;97336.75;;;11.82;79.45
14273;BME280;7220;49.450;11.052;2022-11-15T16:51:55;97349.84;;;11.86;79.24
14273;BME280;7220;49.450;11.052;2022-11-15T16:55:56;97361.75;;;11.93;79.46
14273;BME280;7220;49.450;11.052;2022-11-15T16:59:56;97351.50;;;11.87;80.37
14273;BME280;7220;49.450;11.052;2022-11-15T17:03:57;97342.81;;;11.84;80.26
14273;BME280;7220;49.450;11.052;2022-11-15T17:07:58;97342.19;;;11.81;80.19
14273;BME280;7220;49.450;11.052;2022-11-15T17:11:58;97327.50;;;11.75;81.14
14273;BME280;7220;49.450;11.052;2022-11-15T17:16:03;97325.59;;;11.77;81.50
14273;BME280;7220;49.450;11.052;2022-11-15T17:20:05;97327.72;;;11.72;81.16
14273;BME280;7220;49.450;11.052;2022-11-15T17:24:09;97324.09;;;11.73;81.90
14273;BME280;7220;49.450;11.052;2022-11-15T17:28:09;97312.19;;;11.66;81.79
14273;BME280;7220;49.450;11.052;2022-11-15T17:32:10;97300.91;;;11.62;81.84
14273;BME280;7220;49.450;11.052;2022-11-15T17:36:11;97291.34;;;11.60;82.61
14273;BME280;7220;49.450;11.052;2022-11-15T17:40:11;97293.28;;;11.58;82.46
14273;BME280;7220;49.450;11.052;2022-11-15T17:44:11;97287.31;;;11.54;82.61
14273;BME280;7220;49.450;11.052;2022-11-15T17:48:12;97291.56;;;11.57;82.45
14273;BME280;7220;49.450;11.052;2022-11-15T17:52:12;97286.56;;;11.52;82.73
14273;BME280;7220;49.450;11.052;2022-11-15T17:56:18;97285.19;;;11.46;82.83
14273;BME280;7220;49.450;11.052;2022-11-15T18:00:19;97282.03;;;11.41;82.29
14273;BME280;7220;49.450;11.052;2022-11-15T18:04:20;97282.34;;;11.36;82.00
14273;BME280;7220;49.450;11.052;2022-11-15T18:08:22;97264.94;;;11.32;82.20
14273;BME280;7220;49.450;11.052;2022-11-15T18:12:23;97268.44;;;11.33;81.74
14273;BME280;7220;49.450;11.052;2022-11-15T18:16:25;97271.84;;;11.35;82.68
14273;BME280;7220;49.450;11.052;2022-11-15T18:20:25;97263.75;;;11.24;82.41
14273;BME280;7220;49.450;11.052;2022-11-15T18:24:33;97270.34;;;11.31;82.48
14273;BME280;7220;49.450;11.052;2022-11-15T18:28:36;97265.25;;;11.28;81.72
14273;BME280;7220;49.450;11.052;2022-11-15T18:32:37;97256.34;;;11.16;82.39
14273;BME280;7220;49.450;11.052;2022-11-15T18:36:37;97258.25;;;11.14;81.68
14273;BME280;7220;49.450;11.052;2022-11-15T18:40:38;97257.84;;;11.07;81.65
14273;BME280;7220;49.450;11.052;2022-11-15T18:44:38;97255.94;;;11.09;81.92
14273;BME280;7220;49.450;11.052;2022-11-15T18:48:40;97261.25;;;11.09;82.19
14273;BME280;7220;49.450;11.052;2022-11-15T18:52:41;97259.03;;;11.03;82.59
14273;BME280;7220;49.450;11.052;2022-11-15T18:56:42;97252.63;;;11.05;82.80
14273;BME280;7220;49.450;11.052;2022-11-15T19:00:43;97240.63;;;11.00;83.18
14273;BME280;7220;49.450;11.052;2022-11-15T19:04:43;97231.19;;;10.96;83.19
14273;BME280;7220;49.450;11.052;2022-11-15T19:08:46;97223.19;;;10.96;83.41
14273;BME280;7220;49.450;11.052;2022-11-15T19:12:46;97209.38;;;10.91;83.49
14273;BME280;7220;49.450;11.052;2022-11-15T19:16:48;97215.00;;;10.86;83.66
14273;BME280;7220;49.450;11.052;2022-11-15T19:20:49;97231.41;;;10.67;83.90
14273;BME280;7220;49.450;11.052;2022-11-15T19:24:49;97227.91;;;10.79;82.87
14273;BME280;7220;49.450;11.052;2022-11-15T19:28:52;97215.25;;;10.70;83.05
14273;BME280;7220;49.450;11.052;2022-11-15T19:32:53;97228.09;;;10.76;83.72
14273;BME280;7220;49.450;11.052;2022-11-15T19:36:53;97225.03;;;10.69;84.34
14273;BME280;7220;49.450;11.052;2022-11-15T19:41:01;97223.44;;;10.67;85.53
14273;BME280;7220;49.450;11.052;2022-11-15T19:45:02;97225.78;;;10.58;85.53
14273;BME280;7220;49.450;11.052;2022-11-15T19:49:03;97211.97;;;10.53;86.41
14273;BME280;7220;49.450;11.052;2022-11-15T19:53:03;97209.19;;;10.55;85.96
14273;BME280;7220;49.450;11.052;2022-11-15T19:57:04;97220.88;;;10.52;86.40
14273;BME280;7220;49.450;11.052;2022-11-15T20:01:06;97213.03;;;10.51;86.83
14273;BME280;7220;49.450;11.052;2022-11-15T20:05:07;97217.47;;;10.50;86.57
14273;BME280;7220;49.450;11.052;2022-11-15T20:09:12;97216.84;;;10.47;86.57
14273;BME280;7220;49.450;11.052;2022-11-15T20:13:13;97213.34;;;10.46;87.54
14273;BME280;7220;49.450;11.052;2022-11-15T20:17:13;97211.22;;;10.38;88.95
14273;BME280;7220;49.450;11.052;2022-11-15T20:21:14;97211.31;;;10.37;88.94
14273;BME280;7220;49.450;11.052;2022-11-15T20:25:14;97193.88;;;10.33;90.05
14273;BME280;7220;49.450;11.052;2022-11-15T20:29:15;97213.44;;;10.32;90.61
14273;BME280;7220;49.450;11.052;2022-11-15T20:33:15;97201.72;;;10.21;91.06
14273;BME280;7220;49.450;11.052;2022-11-15T20:37:16;97208.94;;;10.19;91.35
14273;BME280;7220;49.450;11.052;2022-11-15T20:41:18;97198.31;;;10.19;91.41
14273;BME280;7220;49.450;11.052;2022-11-15T20:45:19;97199.50;;;10.15;91.94
14273;BME280;7220;49.450;11.052;2022-11-15T20:49:19;97192.81;;;10.22;91.93
14273;BME280;7220;49.450;11.052;2022-11-15T20:53:20;97187.50;;;10.22;91.29
14273;BME280;7220;49.450;11.052;2022-11-15T20:57:20;97192.56;;;10.25;91.88
14273;BME280;7220;49.450;11.052;2022-11-15T21:01:21;97178.56;;;10.23;91.96
14273;BME280;7220;49.450;11.052;2022-11-15T21:05:23;97173.47;;;10.20;91.52
14273;BME280;7220;49.450;11.052;2022-11-15T21:09:23;97177.94;;;10.20;92.34
14273;BME280;7220;49.450;11.052;2022-11-15T21:13:42;97176.66;;;10.13;91.61
14273;BME280;7220;49.450;11.052;2022-11-15T21:17:43;97168.59;;;10.14;92.36
14273;BME280;7220;49.450;11.052;2022-11-15T21:21:43;97160.94;;;10.09;91.81
14273;BME280;7220;49.450;11.052;2022-11-15T21:25:50;97147.97;;;10.05;92.83
14273;BME280;7220;49.450;11.052;2022-11-15T21:29:51;97148.84;;;10.05;92.76
14273;BME280;7220;49.450;11.052;2022-11-15T21:33:51;97142.88;;;10.02;92.82
14273;BME280;7220;49.450;11.052;2022-11-15T21:37:51;97143.09;;;9.99;93.11
14273;BME280;7220;49.450;11.052;2022-11-15T21:41:52;97125.34;;;9.86;93.08
14273;BME280;7220;49.450;11.052;2022-11-15T21:46:02;97129.69;;;9.87;93.66
14273;BME280;7220;49.450;11.052;2022-11-15T21:50:03;97121.41;;;9.79;94.53
14273;BME280;7220;49.450;11.052;2022-11-15T21:54:04;97115.88;;;9.69;94.67
14273;BME280;7220;49.450;11.052;2022-11-15T21:58:04;97121.81;;;9.73;95.03
14273;BME280;7220;49.450;11.052;2022-11-15T22:02:05;97108.34;;;9.63;95.37
14273;BME280;7220;49.450;11.052;2022-11-15T22:06:14;97101.00;;;9.54;95.77
14273;BME280;7220;49.450;11.052;2022-11-15T22:10:15;97114.25;;;9.54;95.96
14273;BME280;7220;49.450;11.052;2022-11-15T22:14:16;97105.00;;;9.46;96.74
14273;BME280;7220;49.450;11.052;2022-11-15T22:18:16;97106.25;;;9.41;97.28
14273;BME280;7220;49.450;11.052;2022-11-15T22:22:17;97096.91;;;9.35;97.58
14273;BME280;7220;49.450;11.052;2022-11-15T22:26:18;97110.28;;;9.34;97.98
14273;BME280;7220;49.450;11.052;2022-11-15T22:30:20;97093.09;;;9.26;98.48
14273;BME280;7220;49.450;11.052;2022-11-15T22:34:20;97087.97;;;9.23;98.83
14273;BME280;7220;49.450;11.052;2022-11-15T22:38:21;97095.94;;;9.23;98.77
14273;BME280;7220;49.450;11.052;2022-11-15T22:42:21;97083.19;;;9.15;99.64
14273;BME280;7220;49.450;11.052;2022-11-15T22:46:22;97065.25;;;9.06;99.77
14273;BME280;7220;49.450;11.052;2022-11-15T22:50:22;97045.47;;;8.97;100.00
14273;BME280;7220;49.450;11.052;2022-11-15T22:54:22;97054.00;;;9.03;100.00
14273;BME280;7220;49.450;11.052;2022-11-15T22:58:24;97044.34;;;9.02;100.00
14273;BME280;7220;49.450;11.052;2022-11-15T23:02:25;97032.56;;;8.93;100.00